sensor_id;sensor_type;location;lat;lon;timestamp;P1;durP1;ratioP1;P2;durP2;ratioP2
6376;SDS011;3221;48.858;10.128;2022-11-15T00:01:42;3.93;;;2.20;;
6376;SDS011;3221;48.858;10.128;2022-11-15T00:04:28;3.87;;;2.37;;
6376;SDS011;3221;48.858;10.128;2022-11-15T00:07:14;2.67;;;1.90;;
6376;SDS011;3221;48.858;10.128;2022-11-15T00:10:19;3.60;;;2.17;;
6376;SDS011;3221;48.858;10.128;2022-11-15T00:13:05;2.33;;;2.00;;
6376;SDS011;3221;48.858;10.128;2022-11-15T00:15:51;2.50;;;2.00;;
6376;SDS011;3221;48.858;10.128;2022-11-15T00:18:37;2.97;;;2.33;;
6376;SDS011;3221;48.858;10.128;2022-11-15T00:21:24;3.23;;;2.10;;
6376;SDS011;3221;48.858;10.128;2022-11-15T00:24:09;3.07;;;2.20;;
6376;SDS011;3221;48.858;10.128;2022-11-15T00:26:55;2.67;;;1.90;;
6376;SDS011;3221;48.858;10.128;2022-11-15T00:29:40;2.57;;;1.90;;
6376;SDS011;3221;48.858;10.128;2022-11-15T00:32:31;2.60;;;1.90;;
6376;SDS011;3221;48.858;10.128;2022-11-15T00:35:17;3.00;;;2.10;;
6376;SDS011;3221;48.858;10.128;2022-11-15T00:38:03;2.47;;;1.90;;
6376;SDS011;3221;48.858;10.128;2022-11-15T00:40:49;2.83;;;2.10;;
6376;SDS011;3221;48.858;10.128;2022-11-15T00:43:35;2.13;;;1.93;;
6376;SDS011;3221;48.858;10.128;2022-11-15T00:46:20;2.47;;;2.10;;
6376;SDS011;3221;48.858;10.128;2022-11-15T00:49:06;2.80;;;2.03;;
6376;SDS011;3221;48.858;10.128;2022-11-15T00:51:51;3.80;;;1.90;;
6376;SDS011;3221;48.858;10.128;2022-11-15T00:54:37;3.33;;;2.27;;
6376;SDS011;3221;48.858;10.128;2022-11-15T00:57:22;2.10;;;1.90;;
6376;SDS011;3221;48.858;10.128;2022-11-15T01:00:08;2.50;;;1.90;;
6376;SDS011;3221;48.858;10.128;2022-11-15T01:02:54;5.47;;;2.43;;
6376;SDS011;3221;48.858;10.128;2022-11-15T01:05:40;4.53;;;2.10;;
6376;SDS011;3221;48.858;10.128;2022-11-15T01:08:25;3.43;;;2.20;;
6376;SDS011;3221;48.858;10.128;2022-11-15T01:11:11;4.63;;;2.20;;
6376;SDS011;3221;48.858;10.128;2022-11-15T01:13:57;2.80;;;2.10;;
6376;SDS011;3221;48.858;10.128;2022-11-15T01:16:42;2.73;;;1.93;;
6376;SDS011;3221;48.858;10.128;2022-11-15T01:19:28;4.20;;;2.17;;
6376;SDS011;3221;48.858;10.128;2022-11-15T01:22:14;2.70;;;2.10;;
6376;SDS011;3221;48.858;10.128;2022-11-15T01:24:59;4.37;;;2.20;;
6376;SDS011;3221;48.858;10.128;2022-11-15T01:27:45;4.57;;;2.10;;
6376;SDS011;3221;48.858;10.128;2022-11-15T01:30:30;3.30;;;2.37;;
6376;SDS011;3221;48.858;10.128;2022-11-15T01:33:16;4.83;;;2.30;;
6376;SDS011;3221;48.858;10.128;2022-11-15T01:36:05;2.63;;;2.17;;
6376;SDS011;3221;48.858;10.128;2022-11-15T01:38:56;3.30;;;2.20;;
6376;SDS011;3221;48.858;10.128;2022-11-15T01:41:42;4.07;;;2.07;;
6376;SDS011;3221;48.858;10.128;2022-11-15T01:44:36;3.20;;;2.10;;
6376;SDS011;3221;48.858;10.128;2022-11-15T01:47:29;5.13;;;2.80;;
6376;SDS011;3221;48.858;10.128;2022-11-15T01:50:19;2.90;;;2.33;;
6376;SDS011;3221;48.858;10.128;2022-11-15T01:53:10;6.97;;;2.30;;
6376;SDS011;3221;48.858;10.128;2022-11-15T01:55:55;2.57;;;2.07;;
6376;SDS011;3221;48.858;10.128;2022-11-15T01:58:41;2.10;;;1.90;;
6376;SDS011;3221;48.858;10.128;2022-11-15T02:01:29;3.10;;;2.27;;
6376;SDS011;3221;48.858;10.128;2022-11-15T02:04:26;3.87;;;2.27;;
6376;SDS011;3221;48.858;10.128;2022-11-15T02:07:20;2.90;;;1.70;;
6376;SDS011;3221;48.858;10.128;2022-11-15T02:10:08;2.37;;;2.07;;
6376;SDS011;3221;48.858;10.128;2022-11-15T02:12:56;3.03;;;2.40;;
6376;SDS011;3221;48.858;10.128;2022-11-15T02:22:14;2.37;;;2.17;;
6376;SDS011;3221;48.858;10.128;2022-11-15T02:28:48;2.40;;;2.20;;
6376;SDS011;3221;48.858;10.128;2022-11-15T02:31:52;2.50;;;2.20;;
6376;SDS011;3221;48.858;10.128;2022-11-15T02:40:45;4.67;;;2.30;;
6376;SDS011;3221;48.858;10.128;2022-11-15T02:43:48;2.70;;;2.03;;
6376;SDS011;3221;48.858;10.128;2022-11-15T02:50:00;3.13;;;2.20;;
6376;SDS011;3221;48.858;10.128;2022-11-15T02:52:48;2.30;;;2.10;;
6376;SDS011;3221;48.858;10.128;2022-11-15T02:55:38;2.40;;;2.20;;
6376;SDS011;3221;48.858;10.128;2022-11-15T03:01:47;3.10;;;2.13;;
6376;SDS011;3221;48.858;10.128;2022-11-15T03:04:53;4.17;;;2.60;;
6376;SDS011;3221;48.858;10.128;2022-11-15T03:10:53;3.07;;;2.73;;
6376;SDS011;3221;48.858;10.128;2022-11-15T03:14:02;4.33;;;2.57;;
6376;SDS011;3221;48.858;10.128;2022-11-15T03:19:58;3.80;;;2.80;;
6376;SDS011;3221;48.858;10.128;2022-11-15T03:22:46;4.00;;;3.10;;
6376;SDS011;3221;48.858;10.128;2022-11-15T03:25:34;3.73;;;2.80;;
6376;SDS011;3221;48.858;10.128;2022-11-15T03:28:34;4.83;;;2.97;;
6376;SDS011;3221;48.858;10.128;2022-11-15T03:31:27;5.20;;;3.40;;
6376;SDS011;3221;48.858;10.128;2022-11-15T03:34:44;5.07;;;3.60;;
6376;SDS011;3221;48.858;10.128;2022-11-15T03:37:37;5.57;;;3.30;;
6376;SDS011;3221;48.858;10.128;2022-11-15T03:40:58;4.70;;;3.80;;
6376;SDS011;3221;48.858;10.128;2022-11-15T03:49:55;5.00;;;3.43;;
6376;SDS011;3221;48.858;10.128;2022-11-15T03:52:45;3.93;;;3.17;;
6376;SDS011;3221;48.858;10.128;2022-11-15T03:55:32;4.67;;;3.40;;
6376;SDS011;3221;48.858;10.128;2022-11-15T03:58:18;4.57;;;3.00;;
6376;SDS011;3221;48.858;10.128;2022-11-15T04:01:04;5.37;;;3.27;;
6376;SDS011;3221;48.858;10.128;2022-11-15T04:03:49;4.10;;;3.20;;
6376;SDS011;3221;48.858;10.128;2022-11-15T04:06:35;4.23;;;3.40;;
6376;SDS011;3221;48.858;10.128;2022-11-15T04:09:21;4.87;;;3.33;;
6376;SDS011;3221;48.858;10.128;2022-11-15T04:12:07;4.93;;;3.10;;
6376;SDS011;3221;48.858;10.128;2022-11-15T04:14:52;5.00;;;3.10;;
6376;SDS011;3221;48.858;10.128;2022-11-15T04:17:53;4.17;;;3.30;;
6376;SDS011;3221;48.858;10.128;2022-11-15T04:20:39;3.70;;;3.10;;
6376;SDS011;3221;48.858;10.128;2022-11-15T04:23:43;3.97;;;3.07;;
6376;SDS011;3221;48.858;10.128;2022-11-15T04:26:47;5.73;;;3.40;;
6376;SDS011;3221;48.858;10.128;2022-11-15T04:29:33;4.63;;;2.90;;
6376;SDS011;3221;48.858;10.128;2022-11-15T04:32:21;5.30;;;3.63;;
6376;SDS011;3221;48.858;10.128;2022-11-15T04:35:07;3.93;;;2.87;;
6376;SDS011;3221;48.858;10.128;2022-11-15T04:37:53;7.33;;;3.67;;
6376;SDS011;3221;48.858;10.128;2022-11-15T04:40:39;4.67;;;4.13;;
6376;SDS011;3221;48.858;10.128;2022-11-15T04:43:25;4.03;;;3.37;;
6376;SDS011;3221;48.858;10.128;2022-11-15T04:46:10;4.70;;;3.40;;
6376;SDS011;3221;48.858;10.128;2022-11-15T04:48:56;4.80;;;3.60;;
6376;SDS011;3221;48.858;10.128;2022-11-15T04:51:43;6.07;;;3.87;;
6376;SDS011;3221;48.858;10.128;2022-11-15T04:54:29;4.73;;;4.23;;
6376;SDS011;3221;48.858;10.128;2022-11-15T04:57:14;5.27;;;4.20;;
6376;SDS011;3221;48.858;10.128;2022-11-15T05:00:01;5.73;;;4.13;;
6376;SDS011;3221;48.858;10.128;2022-11-15T05:02:50;5.60;;;4.20;;
6376;SDS011;3221;48.858;10.128;2022-11-15T05:05:54;5.50;;;4.33;;
6376;SDS011;3221;48.858;10.128;2022-11-15T05:08:40;4.73;;;4.10;;
6376;SDS011;3221;48.858;10.128;2022-11-15T05:11:25;4.53;;;4.10;;
6376;SDS011;3221;48.858;10.128;2022-11-15T05:14:12;5.40;;;4.20;;
6376;SDS011;3221;48.858;10.128;2022-11-15T05:16:58;6.77;;;5.07;;
6376;SDS011;3221;48.858;10.128;2022-11-15T05:19:43;7.00;;;4.87;;
6376;SDS011;3221;48.858;10.128;2022-11-15T05:22:29;8.00;;;4.97;;
6376;SDS011;3221;48.858;10.128;2022-11-15T05:25:15;8.67;;;5.40;;
6376;SDS011;3221;48.858;10.128;2022-11-15T05:28:01;8.47;;;5.60;;
6376;SDS011;3221;48.858;10.128;2022-11-15T05:30:46;7.37;;;5.60;;
6376;SDS011;3221;48.858;10.128;2022-11-15T05:33:32;7.93;;;5.87;;
6376;SDS011;3221;48.858;10.128;2022-11-15T05:36:21;10.53;;;5.97;;
6376;SDS011;3221;48.858;10.128;2022-11-15T05:39:21;6.50;;;4.40;;
6376;SDS011;3221;48.858;10.128;2022-11-15T05:42:10;6.33;;;4.43;;
6376;SDS011;3221;48.858;10.128;2022-11-15T05:44:57;5.17;;;4.03;;
6376;SDS011;3221;48.858;10.128;2022-11-15T05:47:44;5.63;;;4.00;;
6376;SDS011;3221;48.858;10.128;2022-11-15T05:50:32;4.23;;;3.53;;
6376;SDS011;3221;48.858;10.128;2022-11-15T05:53:19;5.30;;;3.80;;
6376;SDS011;3221;48.858;10.128;2022-11-15T05:56:08;4.43;;;3.53;;
6376;SDS011;3221;48.858;10.128;2022-11-15T05:58:55;4.03;;;3.40;;
6376;SDS011;3221;48.858;10.128;2022-11-15T06:01:44;4.70;;;4.20;;
6376;SDS011;3221;48.858;10.128;2022-11-15T06:04:29;7.57;;;4.70;;
6376;SDS011;3221;48.858;10.128;2022-11-15T06:07:15;4.80;;;4.10;;
6376;SDS011;3221;48.858;10.128;2022-11-15T06:10:01;5.13;;;4.03;;
6376;SDS011;3221;48.858;10.128;2022-11-15T06:12:46;4.10;;;3.70;;
6376;SDS011;3221;48.858;10.128;2022-11-15T06:15:32;4.40;;;3.53;;
6376;SDS011;3221;48.858;10.128;2022-11-15T06:18:21;6.50;;;3.93;;
6376;SDS011;3221;48.858;10.128;2022-11-15T06:21:06;6.60;;;4.13;;
6376;SDS011;3221;48.858;10.128;2022-11-15T06:23:52;3.83;;;3.47;;
6376;SDS011;3221;48.858;10.128;2022-11-15T06:26:37;4.67;;;3.80;;
6376;SDS011;3221;48.858;10.128;2022-11-15T06:29:23;4.97;;;3.87;;
6376;SDS011;3221;48.858;10.128;2022-11-15T06:32:09;5.30;;;3.30;;
6376;SDS011;3221;48.858;10.128;2022-11-15T06:34:54;4.17;;;3.40;;
6376;SDS011;3221;48.858;10.128;2022-11-15T06:37:40;4.03;;;2.97;;
6376;SDS011;3221;48.858;10.128;2022-11-15T06:40:25;4.20;;;3.23;;
6376;SDS011;3221;48.858;10.128;2022-11-15T06:43:11;5.30;;;2.93;;
6376;SDS011;3221;48.858;10.128;2022-11-15T06:46:00;3.90;;;2.87;;
6376;SDS011;3221;48.858;10.128;2022-11-15T06:48:49;3.27;;;2.63;;
6376;SDS011;3221;48.858;10.128;2022-11-15T06:51:36;3.30;;;3.00;;
6376;SDS011;3221;48.858;10.128;2022-11-15T06:54:21;4.63;;;4.13;;
6376;SDS011;3221;48.858;10.128;2022-11-15T06:57:07;5.63;;;4.17;;
6376;SDS011;3221;48.858;10.128;2022-11-15T06:59:53;5.37;;;3.67;;
6376;SDS011;3221;48.858;10.128;2022-11-15T07:02:38;3.93;;;3.23;;
6376;SDS011;3221;48.858;10.128;2022-11-15T07:05:24;3.47;;;3.03;;
6376;SDS011;3221;48.858;10.128;2022-11-15T07:08:09;3.50;;;3.00;;
6376;SDS011;3221;48.858;10.128;2022-11-15T07:10:57;3.27;;;2.50;;
6376;SDS011;3221;48.858;10.128;2022-11-15T07:13:44;4.70;;;2.67;;
6376;SDS011;3221;48.858;10.128;2022-11-15T07:16:30;5.57;;;3.10;;
6376;SDS011;3221;48.858;10.128;2022-11-15T07:19:15;5.33;;;3.10;;
6376;SDS011;3221;48.858;10.128;2022-11-15T07:22:01;3.77;;;3.40;;
6376;SDS011;3221;48.858;10.128;2022-11-15T07:24:46;4.10;;;2.67;;
6376;SDS011;3221;48.858;10.128;2022-11-15T07:27:32;4.63;;;3.00;;
6376;SDS011;3221;48.858;10.128;2022-11-15T07:30:17;5.43;;;3.63;;
6376;SDS011;3221;48.858;10.128;2022-11-15T07:33:03;5.13;;;4.07;;
6376;SDS011;3221;48.858;10.128;2022-11-15T07:35:48;5.27;;;4.10;;
6376;SDS011;3221;48.858;10.128;2022-11-15T07:38:34;4.17;;;3.77;;
6376;SDS011;3221;48.858;10.128;2022-11-15T07:41:26;4.40;;;3.97;;
6376;SDS011;3221;48.858;10.128;2022-11-15T07:44:12;6.07;;;4.40;;
6376;SDS011;3221;48.858;10.128;2022-11-15T07:46:58;7.20;;;5.03;;
6376;SDS011;3221;48.858;10.128;2022-11-15T07:49:43;7.60;;;5.27;;
6376;SDS011;3221;48.858;10.128;2022-11-15T07:52:30;11.80;;;7.60;;
6376;SDS011;3221;48.858;10.128;2022-11-15T07:55:16;10.63;;;6.07;;
6376;SDS011;3221;48.858;10.128;2022-11-15T07:58:05;8.80;;;4.63;;
6376;SDS011;3221;48.858;10.128;2022-11-15T08:00:53;6.63;;;5.07;;
6376;SDS011;3221;48.858;10.128;2022-11-15T08:03:39;7.47;;;4.43;;
6376;SDS011;3221;48.858;10.128;2022-11-15T08:06:24;5.37;;;4.27;;
6376;SDS011;3221;48.858;10.128;2022-11-15T08:09:10;4.53;;;4.00;;
6376;SDS011;3221;48.858;10.128;2022-11-15T08:11:55;5.03;;;3.80;;
6376;SDS011;3221;48.858;10.128;2022-11-15T08:14:41;5.27;;;3.93;;
6376;SDS011;3221;48.858;10.128;2022-11-15T08:17:26;5.23;;;3.90;;
6376;SDS011;3221;48.858;10.128;2022-11-15T08:20:12;4.60;;;4.00;;
6376;SDS011;3221;48.858;10.128;2022-11-15T08:22:58;5.87;;;3.80;;
6376;SDS011;3221;48.858;10.128;2022-11-15T08:25:44;3.80;;;3.37;;
6376;SDS011;3221;48.858;10.128;2022-11-15T08:28:30;4.73;;;3.80;;
6376;SDS011;3221;48.858;10.128;2022-11-15T08:31:17;5.30;;;4.20;;
6376;SDS011;3221;48.858;10.128;2022-11-15T08:34:04;5.50;;;3.50;;
6376;SDS011;3221;48.858;10.128;2022-11-15T08:36:50;6.57;;;3.10;;
6376;SDS011;3221;48.858;10.128;2022-11-15T08:39:36;3.90;;;3.30;;
6376;SDS011;3221;48.858;10.128;2022-11-15T08:42:22;3.00;;;2.73;;
6376;SDS011;3221;48.858;10.128;2022-11-15T08:45:08;2.83;;;2.53;;
6376;SDS011;3221;48.858;10.128;2022-11-15T08:47:54;2.60;;;2.37;;
6376;SDS011;3221;48.858;10.128;2022-11-15T08:50:40;2.63;;;2.43;;
6376;SDS011;3221;48.858;10.128;2022-11-15T08:53:25;2.93;;;2.50;;
6376;SDS011;3221;48.858;10.128;2022-11-15T08:56:12;4.33;;;3.23;;
6376;SDS011;3221;48.858;10.128;2022-11-15T08:58:59;3.87;;;2.80;;
6376;SDS011;3221;48.858;10.128;2022-11-15T09:01:44;4.23;;;3.60;;
6376;SDS011;3221;48.858;10.128;2022-11-15T09:04:30;5.60;;;4.07;;
6376;SDS011;3221;48.858;10.128;2022-11-15T09:07:16;7.90;;;5.77;;
6376;SDS011;3221;48.858;10.128;2022-11-15T09:10:02;7.80;;;6.07;;
6376;SDS011;3221;48.858;10.128;2022-11-15T09:12:48;7.73;;;6.47;;
6376;SDS011;3221;48.858;10.128;2022-11-15T09:15:34;8.17;;;6.40;;
6376;SDS011;3221;48.858;10.128;2022-11-15T09:18:19;7.87;;;5.50;;
6376;SDS011;3221;48.858;10.128;2022-11-15T09:21:07;6.90;;;5.07;;
6376;SDS011;3221;48.858;10.128;2022-11-15T09:23:53;7.73;;;4.57;;
6376;SDS011;3221;48.858;10.128;2022-11-15T09:26:39;5.30;;;4.10;;
6376;SDS011;3221;48.858;10.128;2022-11-15T09:29:26;3.07;;;2.73;;
6376;SDS011;3221;48.858;10.128;2022-11-15T09:32:11;2.53;;;2.03;;
6376;SDS011;3221;48.858;10.128;2022-11-15T09:34:57;1.97;;;1.83;;
6376;SDS011;3221;48.858;10.128;2022-11-15T09:37:42;1.90;;;1.80;;
6376;SDS011;3221;48.858;10.128;2022-11-15T09:40:29;2.23;;;2.03;;
6376;SDS011;3221;48.858;10.128;2022-11-15T09:49:39;3.03;;;2.70;;
6376;SDS011;3221;48.858;10.128;2022-11-15T09:52:22;2.70;;;2.37;;
6376;SDS011;3221;48.858;10.128;2022-11-15T09:54:50;2.90;;;2.60;;
6376;SDS011;3221;48.858;10.128;2022-11-15T10:03:10;3.20;;;2.90;;
6376;SDS011;3221;48.858;10.128;2022-11-15T10:05:47;3.00;;;2.70;;
6376;SDS011;3221;48.858;10.128;2022-11-15T10:08:21;2.87;;;2.50;;
6376;SDS011;3221;48.858;10.128;2022-11-15T10:11:00;3.60;;;2.53;;
6376;SDS011;3221;48.858;10.128;2022-11-15T10:13:50;2.93;;;2.30;;
6376;SDS011;3221;48.858;10.128;2022-11-15T10:16:30;3.03;;;2.73;;
6376;SDS011;3221;48.858;10.128;2022-11-15T10:19:12;2.50;;;2.30;;
6376;SDS011;3221;48.858;10.128;2022-11-15T10:25:23;2.93;;;2.20;;
6376;SDS011;3221;48.858;10.128;2022-11-15T10:27:53;2.50;;;2.30;;
6376;SDS011;3221;48.858;10.128;2022-11-15T10:30:37;2.60;;;2.40;;
6376;SDS011;3221;48.858;10.128;2022-11-15T10:33:13;2.77;;;2.20;;
6376;SDS011;3221;48.858;10.128;2022-11-15T10:36:33;2.50;;;2.30;;
6376;SDS011;3221;48.858;10.128;2022-11-15T10:41:39;3.40;;;2.13;;
6376;SDS011;3221;48.858;10.128;2022-11-15T10:46:36;2.23;;;2.03;;
6376;SDS011;3221;48.858;10.128;2022-11-15T10:49:13;2.40;;;2.20;;
6376;SDS011;3221;48.858;10.128;2022-11-15T10:51:49;3.67;;;2.40;;
6376;SDS011;3221;48.858;10.128;2022-11-15T10:54:23;3.30;;;2.40;;
6376;SDS011;3221;48.858;10.128;2022-11-15T10:56:57;2.63;;;2.43;;
6376;SDS011;3221;48.858;10.128;2022-11-15T10:59:27;2.50;;;2.30;;
6376;SDS011;3221;48.858;10.128;2022-11-15T11:04:58;2.63;;;2.10;;
6376;SDS011;3221;48.858;10.128;2022-11-15T11:07:27;2.93;;;2.30;;
6376;SDS011;3221;48.858;10.128;2022-11-15T11:10:00;2.70;;;2.50;;
6376;SDS011;3221;48.858;10.128;2022-11-15T11:12:43;3.03;;;2.13;;
6376;SDS011;3221;48.858;10.128;2022-11-15T11:15:11;2.30;;;2.10;;
6376;SDS011;3221;48.858;10.128;2022-11-15T11:20:49;2.77;;;2.50;;
6376;SDS011;3221;48.858;10.128;2022-11-15T11:34:45;4.57;;;3.27;;
6376;SDS011;3221;48.858;10.128;2022-11-15T11:37:34;4.80;;;3.47;;
6376;SDS011;3221;48.858;10.128;2022-11-15T11:48:39;5.27;;;3.00;;
6376;SDS011;3221;48.858;10.128;2022-11-15T11:51:17;5.07;;;3.00;;
6376;SDS011;3221;48.858;10.128;2022-11-15T11:53:53;5.13;;;3.43;;
6376;SDS011;3221;48.858;10.128;2022-11-15T11:56:26;5.93;;;3.30;;
6376;SDS011;3221;48.858;10.128;2022-11-15T11:58:57;5.57;;;3.13;;
6376;SDS011;3221;48.858;10.128;2022-11-15T12:01:36;4.17;;;3.50;;
6376;SDS011;3221;48.858;10.128;2022-11-15T12:06:58;4.47;;;3.43;;
6376;SDS011;3221;48.858;10.128;2022-11-15T12:09:35;5.07;;;3.27;;
6376;SDS011;3221;48.858;10.128;2022-11-15T12:14:53;5.93;;;3.27;;
6376;SDS011;3221;48.858;10.128;2022-11-15T12:17:24;5.57;;;3.50;;
6376;SDS011;3221;48.858;10.128;2022-11-15T12:20:20;5.80;;;3.30;;
6376;SDS011;3221;48.858;10.128;2022-11-15T12:22:54;3.37;;;2.77;;
6376;SDS011;3221;48.858;10.128;2022-11-15T12:29:01;4.43;;;2.83;;
6376;SDS011;3221;48.858;10.128;2022-11-15T12:34:13;3.80;;;3.03;;
6376;SDS011;3221;48.858;10.128;2022-11-15T12:36:56;4.30;;;3.37;;
6376;SDS011;3221;48.858;10.128;2022-11-15T12:40:02;4.13;;;2.90;;
6376;SDS011;3221;48.858;10.128;2022-11-15T12:42:58;5.13;;;2.90;;
6376;SDS011;3221;48.858;10.128;2022-11-15T12:45:43;3.77;;;2.60;;
6376;SDS011;3221;48.858;10.128;2022-11-15T12:58:43;3.87;;;2.70;;
6376;SDS011;3221;48.858;10.128;2022-11-15T13:04:08;3.27;;;2.57;;
6376;SDS011;3221;48.858;10.128;2022-11-15T13:12:01;3.10;;;2.20;;
6376;SDS011;3221;48.858;10.128;2022-11-15T13:14:56;2.93;;;2.33;;
6376;SDS011;3221;48.858;10.128;2022-11-15T13:17:29;2.63;;;2.23;;
6376;SDS011;3221;48.858;10.128;2022-11-15T13:22:38;3.50;;;3.20;;
6376;SDS011;3221;48.858;10.128;2022-11-15T13:25:21;4.83;;;3.20;;
6376;SDS011;3221;48.858;10.128;2022-11-15T13:30:49;3.80;;;3.10;;
6376;SDS011;3221;48.858;10.128;2022-11-15T13:33:20;3.70;;;3.07;;
6376;SDS011;3221;48.858;10.128;2022-11-15T13:36:03;2.50;;;2.20;;
6376;SDS011;3221;48.858;10.128;2022-11-15T13:38:56;2.77;;;2.47;;
6376;SDS011;3221;48.858;10.128;2022-11-15T13:41:47;3.43;;;2.50;;
6376;SDS011;3221;48.858;10.128;2022-11-15T13:44:23;2.83;;;2.57;;
6376;SDS011;3221;48.858;10.128;2022-11-15T13:47:35;2.97;;;2.67;;
6376;SDS011;3221;48.858;10.128;2022-11-15T13:49:45;2.60;;;2.40;;
6376;SDS011;3221;48.858;10.128;2022-11-15T13:52:15;4.57;;;2.83;;
6376;SDS011;3221;48.858;10.128;2022-11-15T13:54:55;2.90;;;2.60;;
6376;SDS011;3221;48.858;10.128;2022-11-15T13:57:41;3.80;;;3.00;;
6376;SDS011;3221;48.858;10.128;2022-11-15T14:02:48;4.13;;;3.23;;
6376;SDS011;3221;48.858;10.128;2022-11-15T14:05:17;4.10;;;3.07;;
6376;SDS011;3221;48.858;10.128;2022-11-15T14:10:41;4.33;;;3.30;;
6376;SDS011;3221;48.858;10.128;2022-11-15T14:13:28;4.33;;;3.43;;
6376;SDS011;3221;48.858;10.128;2022-11-15T14:16:19;5.03;;;3.50;;
6376;SDS011;3221;48.858;10.128;2022-11-15T14:18:48;3.60;;;3.30;;
6376;SDS011;3221;48.858;10.128;2022-11-15T14:21:17;4.03;;;3.30;;
6376;SDS011;3221;48.858;10.128;2022-11-15T14:23:45;4.10;;;3.37;;
6376;SDS011;3221;48.858;10.128;2022-11-15T14:26:29;4.20;;;3.20;;
6376;SDS011;3221;48.858;10.128;2022-11-15T14:31:51;3.83;;;2.90;;
6376;SDS011;3221;48.858;10.128;2022-11-15T14:34:19;6.70;;;2.87;;
6376;SDS011;3221;48.858;10.128;2022-11-15T14:36:48;3.97;;;2.80;;
6376;SDS011;3221;48.858;10.128;2022-11-15T14:39:15;3.90;;;2.60;;
6376;SDS011;3221;48.858;10.128;2022-11-15T14:41:42;2.93;;;2.50;;
6376;SDS011;3221;48.858;10.128;2022-11-15T14:44:10;3.97;;;2.53;;
6376;SDS011;3221;48.858;10.128;2022-11-15T14:46:38;3.50;;;2.80;;
6376;SDS011;3221;48.858;10.128;2022-11-15T14:49:05;4.50;;;2.70;;
6376;SDS011;3221;48.858;10.128;2022-11-15T14:51:31;5.77;;;2.87;;
6376;SDS011;3221;48.858;10.128;2022-11-15T14:53:59;4.67;;;2.80;;
6376;SDS011;3221;48.858;10.128;2022-11-15T14:56:26;4.43;;;2.80;;
6376;SDS011;3221;48.858;10.128;2022-11-15T14:58:53;5.77;;;2.60;;
6376;SDS011;3221;48.858;10.128;2022-11-15T15:01:23;2.83;;;2.53;;
6376;SDS011;3221;48.858;10.128;2022-11-15T15:03:52;3.07;;;2.73;;
6376;SDS011;3221;48.858;10.128;2022-11-15T15:06:22;4.70;;;3.03;;
6376;SDS011;3221;48.858;10.128;2022-11-15T15:08:49;5.27;;;2.53;;
6376;SDS011;3221;48.858;10.128;2022-11-15T15:13:48;4.30;;;2.43;;
6376;SDS011;3221;48.858;10.128;2022-11-15T15:16:15;4.57;;;2.70;;
6376;SDS011;3221;48.858;10.128;2022-11-15T15:18:42;3.30;;;2.83;;
6376;SDS011;3221;48.858;10.128;2022-11-15T15:21:16;4.03;;;2.93;;
6376;SDS011;3221;48.858;10.128;2022-11-15T15:23:51;3.63;;;2.63;;
6376;SDS011;3221;48.858;10.128;2022-11-15T15:26:20;3.17;;;2.87;;
6376;SDS011;3221;48.858;10.128;2022-11-15T15:28:47;2.90;;;2.50;;
6376;SDS011;3221;48.858;10.128;2022-11-15T15:31:18;4.20;;;2.83;;
6376;SDS011;3221;48.858;10.128;2022-11-15T15:33:45;3.70;;;2.87;;
6376;SDS011;3221;48.858;10.128;2022-11-15T15:36:12;3.10;;;2.60;;
6376;SDS011;3221;48.858;10.128;2022-11-15T15:38:42;3.80;;;3.20;;
6376;SDS011;3221;48.858;10.128;2022-11-15T15:41:13;4.07;;;3.27;;
6376;SDS011;3221;48.858;10.128;2022-11-15T15:43:41;3.93;;;2.97;;
6376;SDS011;3221;48.858;10.128;2022-11-15T15:46:10;4.23;;;3.30;;
6376;SDS011;3221;48.858;10.128;2022-11-15T15:48:39;5.00;;;3.50;;
6376;SDS011;3221;48.858;10.128;2022-11-15T15:51:07;5.60;;;3.00;;
6376;SDS011;3221;48.858;10.128;2022-11-15T15:53:45;6.30;;;3.70;;
6376;SDS011;3221;48.858;10.128;2022-11-15T15:56:12;7.37;;;3.07;;
6376;SDS011;3221;48.858;10.128;2022-11-15T15:58:39;5.00;;;3.87;;
6376;SDS011;3221;48.858;10.128;2022-11-15T16:01:05;4.00;;;3.53;;
6376;SDS011;3221;48.858;10.128;2022-11-15T16:03:32;3.73;;;3.40;;
6376;SDS011;3221;48.858;10.128;2022-11-15T16:05:59;4.13;;;3.37;;
6376;SDS011;3221;48.858;10.128;2022-11-15T16:08:27;4.53;;;3.23;;
6376;SDS011;3221;48.858;10.128;2022-11-15T16:11:13;7.53;;;3.40;;
6376;SDS011;3221;48.858;10.128;2022-11-15T16:13:40;4.10;;;3.53;;
6376;SDS011;3221;48.858;10.128;2022-11-15T16:16:07;4.93;;;3.57;;
6376;SDS011;3221;48.858;10.128;2022-11-15T16:18:38;5.30;;;3.70;;
6376;SDS011;3221;48.858;10.128;2022-11-15T16:21:05;5.70;;;3.57;;
6376;SDS011;3221;48.858;10.128;2022-11-15T16:23:34;4.57;;;3.80;;
6376;SDS011;3221;48.858;10.128;2022-11-15T16:26:01;6.53;;;3.90;;
6376;SDS011;3221;48.858;10.128;2022-11-15T16:28:29;6.00;;;4.20;;
6376;SDS011;3221;48.858;10.128;2022-11-15T16:31:00;6.53;;;4.10;;
6376;SDS011;3221;48.858;10.128;2022-11-15T16:33:30;9.60;;;5.27;;
6376;SDS011;3221;48.858;10.128;2022-11-15T16:35:58;7.60;;;4.37;;
6376;SDS011;3221;48.858;10.128;2022-11-15T16:38:24;9.30;;;4.63;;
6376;SDS011;3221;48.858;10.128;2022-11-15T16:40:52;5.73;;;4.50;;
6376;SDS011;3221;48.858;10.128;2022-11-15T16:43:18;8.10;;;4.97;;
6376;SDS011;3221;48.858;10.128;2022-11-15T16:45:45;7.00;;;4.80;;
6376;SDS011;3221;48.858;10.128;2022-11-15T16:48:20;9.90;;;4.70;;
6376;SDS011;3221;48.858;10.128;2022-11-15T16:50:47;6.90;;;4.80;;
6376;SDS011;3221;48.858;10.128;2022-11-15T16:53:14;9.33;;;5.70;;
6376;SDS011;3221;48.858;10.128;2022-11-15T16:55:41;9.77;;;5.80;;
6376;SDS011;3221;48.858;10.128;2022-11-15T16:58:08;7.37;;;5.47;;
6376;SDS011;3221;48.858;10.128;2022-11-15T17:00:35;6.87;;;5.70;;
6376;SDS011;3221;48.858;10.128;2022-11-15T17:03:02;6.97;;;6.07;;
6376;SDS011;3221;48.858;10.128;2022-11-15T17:05:30;9.03;;;6.00;;
6376;SDS011;3221;48.858;10.128;2022-11-15T17:07:56;9.53;;;6.80;;
6376;SDS011;3221;48.858;10.128;2022-11-15T17:10:24;10.37;;;6.73;;
6376;SDS011;3221;48.858;10.128;2022-11-15T17:12:53;7.77;;;6.63;;
6376;SDS011;3221;48.858;10.128;2022-11-15T17:15:21;8.73;;;6.57;;
6376;SDS011;3221;48.858;10.128;2022-11-15T17:17:50;8.70;;;6.70;;
6376;SDS011;3221;48.858;10.128;2022-11-15T17:20:19;10.87;;;7.10;;
6376;SDS011;3221;48.858;10.128;2022-11-15T17:22:50;9.03;;;6.60;;
6376;SDS011;3221;48.858;10.128;2022-11-15T17:25:18;7.90;;;6.63;;
6376;SDS011;3221;48.858;10.128;2022-11-15T17:27:45;8.30;;;6.50;;
6376;SDS011;3221;48.858;10.128;2022-11-15T17:30:13;9.73;;;6.90;;
6376;SDS011;3221;48.858;10.128;2022-11-15T17:32:41;10.00;;;6.70;;
6376;SDS011;3221;48.858;10.128;2022-11-15T17:35:09;8.70;;;7.03;;
6376;SDS011;3221;48.858;10.128;2022-11-15T17:37:41;8.23;;;6.20;;
6376;SDS011;3221;48.858;10.128;2022-11-15T17:40:08;8.70;;;6.53;;
6376;SDS011;3221;48.858;10.128;2022-11-15T17:42:35;8.13;;;6.43;;
6376;SDS011;3221;48.858;10.128;2022-11-15T17:45:02;10.97;;;6.77;;
6376;SDS011;3221;48.858;10.128;2022-11-15T17:47:35;8.40;;;6.13;;
6376;SDS011;3221;48.858;10.128;2022-11-15T17:50:02;11.07;;;6.20;;
6376;SDS011;3221;48.858;10.128;2022-11-15T17:52:29;7.63;;;5.90;;
6376;SDS011;3221;48.858;10.128;2022-11-15T17:54:56;8.23;;;5.90;;
6376;SDS011;3221;48.858;10.128;2022-11-15T17:57:23;10.10;;;6.07;;
6376;SDS011;3221;48.858;10.128;2022-11-15T17:59:50;7.60;;;6.00;;
6376;SDS011;3221;48.858;10.128;2022-11-15T18:02:16;8.63;;;6.37;;
6376;SDS011;3221;48.858;10.128;2022-11-15T18:04:44;9.23;;;6.00;;
6376;SDS011;3221;48.858;10.128;2022-11-15T18:07:11;10.20;;;6.63;;
6376;SDS011;3221;48.858;10.128;2022-11-15T18:09:39;10.73;;;6.30;;
6376;SDS011;3221;48.858;10.128;2022-11-15T18:12:09;11.13;;;6.57;;
6376;SDS011;3221;48.858;10.128;2022-11-15T18:14:37;11.53;;;7.00;;
6376;SDS011;3221;48.858;10.128;2022-11-15T18:17:04;10.57;;;7.17;;
6376;SDS011;3221;48.858;10.128;2022-11-15T18:19:31;10.80;;;6.87;;
6376;SDS011;3221;48.858;10.128;2022-11-15T18:21:59;9.13;;;6.87;;
6376;SDS011;3221;48.858;10.128;2022-11-15T18:24:28;16.60;;;7.33;;
6376;SDS011;3221;48.858;10.128;2022-11-15T18:27:00;11.43;;;7.10;;
6376;SDS011;3221;48.858;10.128;2022-11-15T18:29:28;11.80;;;7.80;;
6376;SDS011;3221;48.858;10.128;2022-11-15T18:31:55;9.37;;;6.50;;